Brown City, Michigan
Current Conditions -  °F | °C
As of 8:34 PM on Saturday 25 Oct 2014 (Local Time) from KD95 Reporting Station
Clear Clear  
Wind Chill: 56°   Ceiling: Unl
Heat Index: 56°   Visibility: 10mi
Dew Point: 31°   Wind: 12mph
Humidity: 39%   Direction: 290°WNW
Pressure: 29.77"   Gusts: 16mph
Location:  43.21°N, 82.99°W
Report Text: KD95 260034Z AUTO 29010G14KT 10SM CLR 13/00 A2977 RMK AO2 T01341005
Loading
Personal Weather Stations






























Interactive Weather Map
Tropical Storm Tracking
New forecast layout! Learn more

10-Day Weather Forecast

Advertisements
Track Severe Weather on mobile